sensor_id;sensor_type;location;lat;lon;timestamp;pressure;altitude;pressure_sealevel;temperature;humidity
35489;BME280;21602;55.670;37.578;2022-12-07T00:01:40;100343.88;;;-6.62;53.42
35489;BME280;21602;55.670;37.578;2022-12-07T00:04:10;100343.75;;;-6.60;53.27
35489;BME280;21602;55.670;37.578;2022-12-07T00:06:37;100340.63;;;-6.65;53.22
35489;BME280;21602;55.670;37.578;2022-12-07T00:09:05;100342.69;;;-6.71;53.38
35489;BME280;21602;55.670;37.578;2022-12-07T00:11:31;100337.19;;;-6.79;53.63
35489;BME280;21602;55.670;37.578;2022-12-07T00:14:01;100341.28;;;-6.89;53.77
35489;BME280;21602;55.670;37.578;2022-12-07T00:16:30;100337.13;;;-6.91;53.75
35489;BME280;21602;55.670;37.578;2022-12-07T00:18:57;100341.28;;;-6.89;53.80
35489;BME280;21602;55.670;37.578;2022-12-07T00:21:27;100343.34;;;-6.94;53.78
35489;BME280;21602;55.670;37.578;2022-12-07T00:23:53;100344.56;;;-7.00;53.96
35489;BME280;21602;55.670;37.578;2022-12-07T00:26:20;100352.63;;;-7.04;53.88
35489;BME280;21602;55.670;37.578;2022-12-07T00:28:50;100344.03;;;-7.05;54.15
35489;BME280;21602;55.670;37.578;2022-12-07T00:31:17;100339.47;;;-7.01;53.88
35489;BME280;21602;55.670;37.578;2022-12-07T00:33:43;100343.91;;;-7.03;53.90
35489;BME280;21602;55.670;37.578;2022-12-07T00:36:11;100335.41;;;-7.05;53.82
35489;BME280;21602;55.670;37.578;2022-12-07T00:38:37;100332.09;;;-7.07;53.88
35489;BME280;21602;55.670;37.578;2022-12-07T00:41:09;100337.47;;;-7.10;53.98
35489;BME280;21602;55.670;37.578;2022-12-07T00:43:36;100345.16;;;-7.09;53.98
35489;BME280;21602;55.670;37.578;2022-12-07T00:46:02;100339.88;;;-7.07;53.96
35489;BME280;21602;55.670;37.578;2022-12-07T00:48:28;100339.13;;;-7.09;53.82
35489;BME280;21602;55.670;37.578;2022-12-07T00:50:54;100344.22;;;-7.08;53.84
35489;BME280;21602;55.670;37.578;2022-12-07T00:53:19;100340.59;;;-7.05;53.72
35489;BME280;21602;55.670;37.578;2022-12-07T00:55:45;100340.59;;;-7.05;53.79
35489;BME280;21602;55.670;37.578;2022-12-07T00:58:11;100344.13;;;-7.06;53.75
35489;BME280;21602;55.670;37.578;2022-12-07T01:00:38;100340.34;;;-7.15;53.76
35489;BME280;21602;55.670;37.578;2022-12-07T01:03:04;100338.03;;;-7.19;53.99
35489;BME280;21602;55.670;37.578;2022-12-07T01:05:30;100343.41;;;-7.23;54.06
35489;BME280;21602;55.670;37.578;2022-12-07T01:07:56;100343.63;;;-7.26;54.05
35489;BME280;21602;55.670;37.578;2022-12-07T01:10:22;100336.75;;;-7.27;54.14
35489;BME280;21602;55.670;37.578;2022-12-07T01:12:47;100340.66;;;-7.34;54.11
35489;BME280;21602;55.670;37.578;2022-12-07T01:15:13;100335.03;;;-7.40;54.26
35489;BME280;21602;55.670;37.578;2022-12-07T01:17:39;100340.13;;;-7.39;54.35
35489;BME280;21602;55.670;37.578;2022-12-07T01:20:04;100331.97;;;-7.47;54.32
35489;BME280;21602;55.670;37.578;2022-12-07T01:22:30;100333.63;;;-7.46;54.34
35489;BME280;21602;55.670;37.578;2022-12-07T01:24:56;100336.22;;;-7.46;54.31
35489;BME280;21602;55.670;37.578;2022-12-07T01:27:21;100329.25;;;-7.45;54.52
35489;BME280;21602;55.670;37.578;2022-12-07T01:29:47;100334.16;;;-7.41;54.30
35489;BME280;21602;55.670;37.578;2022-12-07T01:32:13;100332.50;;;-7.42;54.26
35489;BME280;21602;55.670;37.578;2022-12-07T01:34:38;100330.31;;;-7.48;54.20
35489;BME280;21602;55.670;37.578;2022-12-07T01:37:04;100327.53;;;-7.45;54.43
35489;BME280;21602;55.670;37.578;2022-12-07T01:39:30;100327.53;;;-7.45;54.41
35489;BME280;21602;55.670;37.578;2022-12-07T01:41:55;100325.13;;;-7.48;54.57
35489;BME280;21602;55.670;37.578;2022-12-07T01:44:22;100326.78;;;-7.47;54.40
35489;BME280;21602;55.670;37.578;2022-12-07T01:46:52;100329.00;;;-7.55;54.62
35489;BME280;21602;55.670;37.578;2022-12-07T01:51:44;100312.72;;;-7.57;54.58
35489;BME280;21602;55.670;37.578;2022-12-07T01:54:13;100320.13;;;-7.65;54.92
35489;BME280;21602;55.670;37.578;2022-12-07T01:56:40;100324.75;;;-7.70;54.92
35489;BME280;21602;55.670;37.578;2022-12-07T01:59:08;100319.50;;;-7.69;54.78
35489;BME280;21602;55.670;37.578;2022-12-07T02:01:33;100314.94;;;-7.65;54.83
35489;BME280;21602;55.670;37.578;2022-12-07T02:03:59;100310.41;;;-7.62;54.75
35489;BME280;21602;55.670;37.578;2022-12-07T02:06:25;100311.88;;;-7.58;54.76
35489;BME280;21602;55.670;37.578;2022-12-07T02:08:51;100317.34;;;-7.62;54.72
35489;BME280;21602;55.670;37.578;2022-12-07T02:11:17;100308.53;;;-7.60;55.07
35489;BME280;21602;55.670;37.578;2022-12-07T02:13:43;100314.38;;;-7.56;54.88
35489;BME280;21602;55.670;37.578;2022-12-07T02:21:46;100299.66;;;-7.56;54.75
35489;BME280;21602;55.670;37.578;2022-12-07T02:32:35;100283.81;;;-7.65;55.47
35489;BME280;21602;55.670;37.578;2022-12-07T02:34:56;100296.50;;;-7.61;55.35
35489;BME280;21602;55.670;37.578;2022-12-07T02:37:29;100296.31;;;-7.58;55.49
35489;BME280;21602;55.670;37.578;2022-12-07T02:40:04;100295.50;;;-7.58;55.52
35489;BME280;21602;55.670;37.578;2022-12-07T02:45:25;100298.66;;;-7.67;56.09
35489;BME280;21602;55.670;37.578;2022-12-07T02:47:53;100287.44;;;-7.68;56.12
35489;BME280;21602;55.670;37.578;2022-12-07T02:50:21;100299.03;;;-7.74;56.50
35489;BME280;21602;55.670;37.578;2022-12-07T02:52:47;100299.31;;;-7.78;56.41
35489;BME280;21602;55.670;37.578;2022-12-07T02:55:13;100297.00;;;-7.83;56.59
35489;BME280;21602;55.670;37.578;2022-12-07T03:00:18;100299.22;;;-7.91;56.87
35489;BME280;21602;55.670;37.578;2022-12-07T03:10:38;100292.38;;;-7.92;57.18
35489;BME280;21602;55.670;37.578;2022-12-07T03:13:11;100298.56;;;-7.94;57.24
35489;BME280;21602;55.670;37.578;2022-12-07T03:15:45;100287.47;;;-7.96;57.32
35489;BME280;21602;55.670;37.578;2022-12-07T03:18:12;100295.53;;;-8.01;57.25
35489;BME280;21602;55.670;37.578;2022-12-07T03:20:41;100288.75;;;-8.04;57.53
35489;BME280;21602;55.670;37.578;2022-12-07T03:23:09;100293.56;;;-7.97;57.54
35489;BME280;21602;55.670;37.578;2022-12-07T03:25:37;100285.31;;;-7.90;57.51
35489;BME280;21602;55.670;37.578;2022-12-07T03:28:05;100287.53;;;-7.84;57.27
35489;BME280;21602;55.670;37.578;2022-12-07T03:30:42;100290.34;;;-7.87;57.29
35489;BME280;21602;55.670;37.578;2022-12-07T03:33:13;100297.56;;;-7.92;57.22
35489;BME280;21602;55.670;37.578;2022-12-07T03:35:49;100286.81;;;-8.00;57.77
35489;BME280;21602;55.670;37.578;2022-12-07T03:40:57;100284.66;;;-7.93;57.52
35489;BME280;21602;55.670;37.578;2022-12-07T03:43:24;100285.88;;;-7.99;57.79
35489;BME280;21602;55.670;37.578;2022-12-07T03:48:32;100284.88;;;-7.96;58.08
35489;BME280;21602;55.670;37.578;2022-12-07T03:55:53;100286.25;;;-7.91;57.98
35489;BME280;21602;55.670;37.578;2022-12-07T03:58:20;100283.50;;;-8.02;58.25
35489;BME280;21602;55.670;37.578;2022-12-07T04:00:46;100283.19;;;-8.12;58.49
35489;BME280;21602;55.670;37.578;2022-12-07T04:03:12;100277.94;;;-8.10;58.45
35489;BME280;21602;55.670;37.578;2022-12-07T04:05:38;100273.69;;;-8.11;58.74
35489;BME280;21602;55.670;37.578;2022-12-07T04:08:04;100271.38;;;-8.16;58.83
35489;BME280;21602;55.670;37.578;2022-12-07T04:10:32;100277.38;;;-8.15;59.03
35489;BME280;21602;55.670;37.578;2022-12-07T04:12:58;100273.13;;;-8.16;59.09
35489;BME280;21602;55.670;37.578;2022-12-07T04:15:23;100282.72;;;-8.18;59.10
35489;BME280;21602;55.670;37.578;2022-12-07T04:17:49;100280.13;;;-8.18;59.21
35489;BME280;21602;55.670;37.578;2022-12-07T04:20:14;100269.22;;;-8.23;59.71
35489;BME280;21602;55.670;37.578;2022-12-07T04:22:40;100276.16;;;-8.24;59.64
35489;BME280;21602;55.670;37.578;2022-12-07T04:25:06;100276.44;;;-8.29;59.97
35489;BME280;21602;55.670;37.578;2022-12-07T04:27:31;100271.72;;;-8.22;59.98
35489;BME280;21602;55.670;37.578;2022-12-07T04:29:57;100274.03;;;-8.17;60.27
35489;BME280;21602;55.670;37.578;2022-12-07T04:32:23;100276.06;;;-8.22;60.46
35489;BME280;21602;55.670;37.578;2022-12-07T04:34:48;100275.69;;;-8.31;60.59
35489;BME280;21602;55.670;37.578;2022-12-07T04:37:14;100271.34;;;-8.30;60.59
35489;BME280;21602;55.670;37.578;2022-12-07T04:39:40;100266.91;;;-8.28;61.13
35489;BME280;21602;55.670;37.578;2022-12-07T04:42:06;100271.34;;;-8.30;61.14
35489;BME280;21602;55.670;37.578;2022-12-07T04:44:31;100264.13;;;-8.25;61.21
35489;BME280;21602;55.670;37.578;2022-12-07T04:47:00;100262.09;;;-8.20;61.35
35489;BME280;21602;55.670;37.578;2022-12-07T04:49:25;100261.28;;;-8.20;61.22
35489;BME280;21602;55.670;37.578;2022-12-07T04:51:51;100259.59;;;-8.21;61.35
35489;BME280;21602;55.670;37.578;2022-12-07T04:54:17;100264.75;;;-8.21;61.33
35489;BME280;21602;55.670;37.578;2022-12-07T04:56:43;100265.53;;;-8.19;61.40
35489;BME280;21602;55.670;37.578;2022-12-07T04:59:09;100271.63;;;-8.20;61.88
35489;BME280;21602;55.670;37.578;2022-12-07T05:01:34;100267.47;;;-8.23;62.13
35489;BME280;21602;55.670;37.578;2022-12-07T05:04:00;100268.50;;;-8.26;62.16
35489;BME280;21602;55.670;37.578;2022-12-07T05:06:26;100264.47;;;-8.31;62.48
35489;BME280;21602;55.670;37.578;2022-12-07T05:08:51;100267.34;;;-8.36;62.53
35489;BME280;21602;55.670;37.578;2022-12-07T05:11:17;100259.72;;;-8.37;62.34
35489;BME280;21602;55.670;37.578;2022-12-07T05:14:02;100266.19;;;-8.44;62.91
35489;BME280;21602;55.670;37.578;2022-12-07T05:16:28;100266.34;;;-8.47;63.10
35489;BME280;21602;55.670;37.578;2022-12-07T05:19:02;100273.28;;;-8.48;63.85
35489;BME280;21602;55.670;37.578;2022-12-07T05:21:28;100267.84;;;-8.43;63.60
35489;BME280;21602;55.670;37.578;2022-12-07T05:23:54;100264.69;;;-8.48;64.42
35489;BME280;21602;55.670;37.578;2022-12-07T05:26:22;100260.34;;;-8.48;64.14
35489;BME280;21602;55.670;37.578;2022-12-07T05:29:12;100256.81;;;-8.47;64.32
35489;BME280;21602;55.670;37.578;2022-12-07T05:31:37;100263.66;;;-8.46;64.74
35489;BME280;21602;55.670;37.578;2022-12-07T05:34:03;100263.31;;;-8.40;64.88
35489;BME280;21602;55.670;37.578;2022-12-07T05:36:29;100257.75;;;-8.34;64.99
35489;BME280;21602;55.670;37.578;2022-12-07T05:38:57;100258.31;;;-8.29;64.97
35489;BME280;21602;55.670;37.578;2022-12-07T05:41:22;100261.47;;;-8.38;65.63
35489;BME280;21602;55.670;37.578;2022-12-07T05:44:06;100260.16;;;-8.31;65.42
35489;BME280;21602;55.670;37.578;2022-12-07T05:46:32;100255.06;;;-8.32;65.73
35489;BME280;21602;55.670;37.578;2022-12-07T05:48:58;100253.13;;;-8.29;65.42
35489;BME280;21602;55.670;37.578;2022-12-07T05:51:23;100263.31;;;-8.26;65.71
35489;BME280;21602;55.670;37.578;2022-12-07T05:53:49;100260.78;;;-8.27;65.67
35489;BME280;21602;55.670;37.578;2022-12-07T05:56:15;100261.81;;;-8.30;66.13
35489;BME280;21602;55.670;37.578;2022-12-07T05:58:41;100260.72;;;-8.26;66.02
35489;BME280;21602;55.670;37.578;2022-12-07T06:01:26;100255.16;;;-8.34;65.99
35489;BME280;21602;55.670;37.578;2022-12-07T06:03:51;100255.81;;;-8.44;67.42
35489;BME280;21602;55.670;37.578;2022-12-07T06:06:17;100258.31;;;-8.43;66.81
35489;BME280;21602;55.670;37.578;2022-12-07T06:08:43;100253.03;;;-8.41;67.34
35489;BME280;21602;55.670;37.578;2022-12-07T06:11:08;100262.41;;;-8.39;67.43
35489;BME280;21602;55.670;37.578;2022-12-07T06:13:52;100254.63;;;-8.39;67.16
35489;BME280;21602;55.670;37.578;2022-12-07T06:16:18;100255.34;;;-8.37;67.63
35489;BME280;21602;55.670;37.578;2022-12-07T06:18:44;100258.97;;;-8.39;68.21
35489;BME280;21602;55.670;37.578;2022-12-07T06:21:09;100254.31;;;-8.34;68.24
35489;BME280;21602;55.670;37.578;2022-12-07T06:23:36;100259.41;;;-8.33;68.12
35489;BME280;21602;55.670;37.578;2022-12-07T06:26:01;100250.69;;;-8.32;68.79
35489;BME280;21602;55.670;37.578;2022-12-07T06:28:27;100252.41;;;-8.31;69.16
35489;BME280;21602;55.670;37.578;2022-12-07T06:30:59;100252.03;;;-8.25;68.30
35489;BME280;21602;55.670;37.578;2022-12-07T06:33:25;100246.84;;;-8.25;68.55
35489;BME280;21602;55.670;37.578;2022-12-07T06:35:51;100255.59;;;-8.27;68.74
35489;BME280;21602;55.670;37.578;2022-12-07T06:38:16;100255.81;;;-8.30;69.27
35489;BME280;21602;55.670;37.578;2022-12-07T06:40:44;100249.69;;;-8.29;69.26
35489;BME280;21602;55.670;37.578;2022-12-07T06:43:10;100255.53;;;-8.26;69.34
35489;BME280;21602;55.670;37.578;2022-12-07T06:45:35;100255.16;;;-8.19;69.30
35489;BME280;21602;55.670;37.578;2022-12-07T06:48:01;100249.97;;;-8.19;69.37
35489;BME280;21602;55.670;37.578;2022-12-07T06:50:26;100254.69;;;-8.26;69.95
35489;BME280;21602;55.670;37.578;2022-12-07T06:52:52;100245.44;;;-8.30;69.70
35489;BME280;21602;55.670;37.578;2022-12-07T06:55:18;100247.22;;;-8.31;69.80
35489;BME280;21602;55.670;37.578;2022-12-07T06:57:43;100252.03;;;-8.25;69.73
35489;BME280;21602;55.670;37.578;2022-12-07T07:00:10;100256.72;;;-8.17;69.71
35489;BME280;21602;55.670;37.578;2022-12-07T07:02:37;100249.44;;;-8.25;70.31
35489;BME280;21602;55.670;37.578;2022-12-07T07:05:03;100262.38;;;-8.25;69.99
35489;BME280;21602;55.670;37.578;2022-12-07T07:07:29;100256.38;;;-8.25;69.78
35489;BME280;21602;55.670;37.578;2022-12-07T07:09:57;100259.78;;;-8.25;70.12
35489;BME280;21602;55.670;37.578;2022-12-07T07:12:23;100256.94;;;-8.20;69.74
35489;BME280;21602;55.670;37.578;2022-12-07T07:14:48;100258.75;;;-8.22;69.52
35489;BME280;21602;55.670;37.578;2022-12-07T07:17:14;100262.66;;;-8.29;69.85
35489;BME280;21602;55.670;37.578;2022-12-07T07:19:39;100255.72;;;-8.29;69.94
35489;BME280;21602;55.670;37.578;2022-12-07T07:22:05;100255.34;;;-8.22;70.35
35489;BME280;21602;55.670;37.578;2022-12-07T07:24:31;100253.78;;;-8.11;70.08
35489;BME280;21602;55.670;37.578;2022-12-07T07:26:56;100258.88;;;-8.09;69.41
35489;BME280;21602;55.670;37.578;2022-12-07T07:29:22;100255.34;;;-8.08;69.48
35489;BME280;21602;55.670;37.578;2022-12-07T07:31:47;100250.72;;;-8.03;69.61
35489;BME280;21602;55.670;37.578;2022-12-07T07:34:13;100242.75;;;-8.00;69.45
35489;BME280;21602;55.670;37.578;2022-12-07T07:36:39;100246.19;;;-8.00;69.44
35489;BME280;21602;55.670;37.578;2022-12-07T07:39:04;100253.50;;;-7.92;69.69
35489;BME280;21602;55.670;37.578;2022-12-07T07:41:30;100243.41;;;-7.82;69.44
35489;BME280;21602;55.670;37.578;2022-12-07T07:43:56;100238.00;;;-7.79;69.00
35489;BME280;21602;55.670;37.578;2022-12-07T07:46:22;100240.88;;;-7.84;69.10
35489;BME280;21602;55.670;37.578;2022-12-07T07:48:47;100238.50;;;-7.87;69.24
35489;BME280;21602;55.670;37.578;2022-12-07T07:51:13;100235.91;;;-7.87;69.30
35489;BME280;21602;55.670;37.578;2022-12-07T07:53:39;100238.28;;;-7.84;69.29
35489;BME280;21602;55.670;37.578;2022-12-07T07:56:05;100234.78;;;-7.83;69.37
35489;BME280;21602;55.670;37.578;2022-12-07T07:58:30;100237.94;;;-7.78;69.23
35489;BME280;21602;55.670;37.578;2022-12-07T08:00:56;100233.47;;;-7.76;69.16
35489;BME280;21602;55.670;37.578;2022-12-07T08:03:21;100235.06;;;-7.73;69.20
35489;BME280;21602;55.670;37.578;2022-12-07T08:05:47;100235.88;;;-7.72;68.92
35489;BME280;21602;55.670;37.578;2022-12-07T08:08:13;100237.72;;;-7.75;68.78
35489;BME280;21602;55.670;37.578;2022-12-07T08:10:38;100231.06;;;-7.79;68.83
35489;BME280;21602;55.670;37.578;2022-12-07T08:13:04;100229.41;;;-7.80;68.69
35489;BME280;21602;55.670;37.578;2022-12-07T08:15:36;100228.28;;;-7.76;69.05
35489;BME280;21602;55.670;37.578;2022-12-07T08:18:02;100238.56;;;-7.74;68.73
35489;BME280;21602;55.670;37.578;2022-12-07T08:20:29;100221.16;;;-7.72;68.46
35489;BME280;21602;55.670;37.578;2022-12-07T08:22:56;100221.41;;;-7.62;68.36
35489;BME280;21602;55.670;37.578;2022-12-07T08:25:22;100226.97;;;-7.54;67.98
35489;BME280;21602;55.670;37.578;2022-12-07T08:27:47;100218.19;;;-7.39;67.74
35489;BME280;21602;55.670;37.578;2022-12-07T08:30:13;100215.97;;;-7.31;67.35
35489;BME280;21602;55.670;37.578;2022-12-07T08:32:39;100218.88;;;-7.23;66.74
35489;BME280;21602;55.670;37.578;2022-12-07T08:35:05;100217.44;;;-7.14;66.48
35489;BME280;21602;55.670;37.578;2022-12-07T08:37:31;100219.09;;;-7.13;66.13
35489;BME280;21602;55.670;37.578;2022-12-07T08:39:56;100222.00;;;-7.17;65.80
35489;BME280;21602;55.670;37.578;2022-12-07T08:42:22;100218.56;;;-7.18;65.74
35489;BME280;21602;55.670;37.578;2022-12-07T08:44:52;100217.03;;;-7.20;65.68
35489;BME280;21602;55.670;37.578;2022-12-07T08:47:18;100209.84;;;-7.30;65.07
35489;BME280;21602;55.670;37.578;2022-12-07T08:49:44;100210.78;;;-7.31;65.15
35489;BME280;21602;55.670;37.578;2022-12-07T08:52:13;100218.34;;;-7.28;65.48
35489;BME280;21602;55.670;37.578;2022-12-07T08:54:38;100209.25;;;-7.20;65.20
35489;BME280;21602;55.670;37.578;2022-12-07T08:57:07;100206.97;;;-7.12;65.35
35489;BME280;21602;55.670;37.578;2022-12-07T08:59:35;100194.22;;;-7.03;64.98
35489;BME280;21602;55.670;37.578;2022-12-07T09:02:01;100198.81;;;-6.93;65.33
35489;BME280;21602;55.670;37.578;2022-12-07T09:04:26;100198.72;;;-6.92;64.96
35489;BME280;21602;55.670;37.578;2022-12-07T09:06:53;100205.56;;;-6.91;65.14
35489;BME280;21602;55.670;37.578;2022-12-07T09:09:19;100195.19;;;-6.91;64.93
35489;BME280;21602;55.670;37.578;2022-12-07T09:11:45;100188.63;;;-6.84;64.90
35489;BME280;21602;55.670;37.578;2022-12-07T09:14:10;100187.91;;;-6.86;64.74
35489;BME280;21602;55.670;37.578;2022-12-07T09:16:37;100196.34;;;-6.82;64.70
35489;BME280;21602;55.670;37.578;2022-12-07T09:19:03;100185.97;;;-6.82;64.26
35489;BME280;21602;55.670;37.578;2022-12-07T09:21:29;100184.19;;;-6.82;64.30
35489;BME280;21602;55.670;37.578;2022-12-07T09:23:57;100184.00;;;-6.79;64.05
35489;BME280;21602;55.670;37.578;2022-12-07T09:26:23;100182.94;;;-6.76;64.12
35489;BME280;21602;55.670;37.578;2022-12-07T09:28:48;100174.97;;;-6.73;63.70
35489;BME280;21602;55.670;37.578;2022-12-07T09:31:14;100175.38;;;-6.66;63.61
35489;BME280;21602;55.670;37.578;2022-12-07T09:33:39;100177.03;;;-6.65;63.33
35489;BME280;21602;55.670;37.578;2022-12-07T09:36:06;100160.72;;;-6.67;63.33
35489;BME280;21602;55.670;37.578;2022-12-07T09:38:32;100164.16;;;-6.67;62.81
35489;BME280;21602;55.670;37.578;2022-12-07T09:40:58;100167.06;;;-6.59;62.79
35489;BME280;21602;55.670;37.578;2022-12-07T09:43:28;100165.81;;;-6.53;62.55
35489;BME280;21602;55.670;37.578;2022-12-07T09:45:54;100164.56;;;-6.60;62.14
35489;BME280;21602;55.670;37.578;2022-12-07T09:50:50;100158.13;;;-6.67;62.07
35489;BME280;21602;55.670;37.578;2022-12-07T09:53:22;100156.25;;;-6.65;62.27
35489;BME280;21602;55.670;37.578;2022-12-07T09:55:52;100150.16;;;-6.64;61.98
35489;BME280;21602;55.670;37.578;2022-12-07T09:58:23;100147.75;;;-6.67;61.95
35489;BME280;21602;55.670;37.578;2022-12-07T10:00:56;100138.81;;;-6.63;61.69
35489;BME280;21602;55.670;37.578;2022-12-07T10:03:22;100143.59;;;-6.57;61.32
35489;BME280;21602;55.670;37.578;2022-12-07T10:05:49;100140.56;;;-6.51;61.43
35489;BME280;21602;55.670;37.578;2022-12-07T10:08:16;100142.84;;;-6.47;61.14
35489;BME280;21602;55.670;37.578;2022-12-07T10:10:42;100132.38;;;-6.45;61.19
35489;BME280;21602;55.670;37.578;2022-12-07T10:13:09;100140.66;;;-6.40;61.11
35489;BME280;21602;55.670;37.578;2022-12-07T10:15:43;100139.53;;;-6.36;60.90
35489;BME280;21602;55.670;37.578;2022-12-07T10:21:03;100143.03;;;-6.37;61.00
35489;BME280;21602;55.670;37.578;2022-12-07T10:23:29;100132.88;;;-6.40;60.91
35489;BME280;21602;55.670;37.578;2022-12-07T10:25:55;100131.81;;;-6.37;60.62
35489;BME280;21602;55.670;37.578;2022-12-07T10:28:20;100131.19;;;-6.41;60.64
35489;BME280;21602;55.670;37.578;2022-12-07T10:35:53;100131.50;;;-6.33;61.55
35489;BME280;21602;55.670;37.578;2022-12-07T10:38:19;100124.72;;;-6.23;60.66
35489;BME280;21602;55.670;37.578;2022-12-07T10:40:45;100122.34;;;-6.26;60.16
35489;BME280;21602;55.670;37.578;2022-12-07T10:48:26;100115.91;;;-6.33;60.39
35489;BME280;21602;55.670;37.578;2022-12-07T10:51:05;100118.41;;;-6.31;60.06
35489;BME280;21602;55.670;37.578;2022-12-07T11:06:38;100099.06;;;-6.27;59.68
35489;BME280;21602;55.670;37.578;2022-12-07T11:09:19;100098.03;;;-6.25;59.92
35489;BME280;21602;55.670;37.578;2022-12-07T11:11:56;100080.03;;;-6.28;59.97
35489;BME280;21602;55.670;37.578;2022-12-07T11:15:08;100092.22;;;-6.41;59.83
35489;BME280;21602;55.670;37.578;2022-12-07T11:20:01;100088.59;;;-6.51;60.21
35489;BME280;21602;55.670;37.578;2022-12-07T11:30:57;100088.38;;;-6.35;61.13
35489;BME280;21602;55.670;37.578;2022-12-07T11:33:31;100077.06;;;-6.47;60.14
35489;BME280;21602;55.670;37.578;2022-12-07T11:36:07;100080.41;;;-6.45;60.55
35489;BME280;21602;55.670;37.578;2022-12-07T11:41:03;100081.56;;;-6.62;60.44
35489;BME280;21602;55.670;37.578;2022-12-07T11:43:54;100076.88;;;-6.70;60.64
35489;BME280;21602;55.670;37.578;2022-12-07T11:46:22;100077.63;;;-6.67;60.79
35489;BME280;21602;55.670;37.578;2022-12-07T11:49:02;100073.59;;;-6.72;61.00
35489;BME280;21602;55.670;37.578;2022-12-07T11:51:29;100065.59;;;-6.68;60.82
35489;BME280;21602;55.670;37.578;2022-12-07T11:54:00;100062.06;;;-6.67;60.95
35489;BME280;21602;55.670;37.578;2022-12-07T11:56:27;100065.28;;;-6.77;61.18
35489;BME280;21602;55.670;37.578;2022-12-07T12:06:34;100050.13;;;-6.96;61.64
35489;BME280;21602;55.670;37.578;2022-12-07T12:09:23;100046.41;;;-6.91;61.60
35489;BME280;21602;55.670;37.578;2022-12-07T12:11:51;100044.00;;;-6.94;61.72
35489;BME280;21602;55.670;37.578;2022-12-07T12:19:37;100039.63;;;-6.94;61.80
35489;BME280;21602;55.670;37.578;2022-12-07T12:22:11;100036.84;;;-6.91;61.94
35489;BME280;21602;55.670;37.578;2022-12-07T12:24:38;100043.69;;;-6.90;62.19
35489;BME280;21602;55.670;37.578;2022-12-07T12:27:14;100033.09;;;-6.87;62.06
35489;BME280;21602;55.670;37.578;2022-12-07T12:29:41;100038.09;;;-6.97;62.06
35489;BME280;21602;55.670;37.578;2022-12-07T12:34:42;100031.75;;;-7.18;62.46
35489;BME280;21602;55.670;37.578;2022-12-07T12:42:56;100037.44;;;-7.51;63.82
35489;BME280;21602;55.670;37.578;2022-12-07T12:45:26;100033.91;;;-7.50;63.67
35489;BME280;21602;55.670;37.578;2022-12-07T12:50:22;100042.41;;;-7.61;64.30
35489;BME280;21602;55.670;37.578;2022-12-07T12:52:51;100043.44;;;-7.63;64.05
35489;BME280;21602;55.670;37.578;2022-12-07T12:55:18;100037.81;;;-7.70;64.27
35489;BME280;21602;55.670;37.578;2022-12-07T12:57:46;100030.34;;;-7.75;64.55
35489;BME280;21602;55.670;37.578;2022-12-07T13:00:20;100040.72;;;-7.75;65.13
35489;BME280;21602;55.670;37.578;2022-12-07T13:02:52;100021.66;;;-7.74;65.01
35489;BME280;21602;55.670;37.578;2022-12-07T13:05:21;100034.81;;;-7.77;65.03
35489;BME280;21602;55.670;37.578;2022-12-07T13:07:52;100027.44;;;-7.83;65.41
35489;BME280;21602;55.670;37.578;2022-12-07T13:15:32;100029.91;;;-7.81;65.83
35489;BME280;21602;55.670;37.578;2022-12-07T13:17:59;100030.94;;;-7.84;66.03
35489;BME280;21602;55.670;37.578;2022-12-07T13:23:06;100031.75;;;-7.96;66.33
35489;BME280;21602;55.670;37.578;2022-12-07T13:25:51;100032.47;;;-7.94;66.38
35489;BME280;21602;55.670;37.578;2022-12-07T13:28:20;100030.69;;;-7.93;66.26
35489;BME280;21602;55.670;37.578;2022-12-07T13:30:58;100027.03;;;-8.04;66.94
35489;BME280;21602;55.670;37.578;2022-12-07T13:33:25;100028.09;;;-8.06;66.94
35489;BME280;21602;55.670;37.578;2022-12-07T13:35:56;100018.56;;;-8.06;67.08
35489;BME280;21602;55.670;37.578;2022-12-07T13:38:29;100026.63;;;-8.10;66.94
35489;BME280;21602;55.670;37.578;2022-12-07T13:40:59;100020.69;;;-8.12;67.03
35489;BME280;21602;55.670;37.578;2022-12-07T13:43:25;100021.28;;;-8.21;67.43
35489;BME280;21602;55.670;37.578;2022-12-07T13:45:55;100015.25;;;-8.22;67.28
35489;BME280;21602;55.670;37.578;2022-12-07T13:50:55;100016.50;;;-8.28;67.63
35489;BME280;21602;55.670;37.578;2022-12-07T13:53:21;100011.31;;;-8.28;67.61
35489;BME280;21602;55.670;37.578;2022-12-07T13:55:47;100012.97;;;-8.27;67.74
35489;BME280;21602;55.670;37.578;2022-12-07T13:58:21;100014.66;;;-8.26;67.75
35489;BME280;21602;55.670;37.578;2022-12-07T14:12:21;100001.78;;;-8.27;67.37
35489;BME280;21602;55.670;37.578;2022-12-07T14:19:42;100004.78;;;-8.33;67.78
35489;BME280;21602;55.670;37.578;2022-12-07T14:22:15;99999.41;;;-8.30;68.00
35489;BME280;21602;55.670;37.578;2022-12-07T14:24:44;100001.25;;;-8.32;67.87
35489;BME280;21602;55.670;37.578;2022-12-07T14:27:19;100003.94;;;-8.34;68.04
35489;BME280;21602;55.670;37.578;2022-12-07T14:29:48;99999.41;;;-8.30;68.08
35489;BME280;21602;55.670;37.578;2022-12-07T14:35:44;99995.06;;;-8.30;67.85
35489;BME280;21602;55.670;37.578;2022-12-07T14:38:11;99989.34;;;-8.35;68.19
35489;BME280;21602;55.670;37.578;2022-12-07T14:40:37;99986.53;;;-8.32;68.02
35489;BME280;21602;55.670;37.578;2022-12-07T14:43:11;99985.91;;;-8.35;68.14
35489;BME280;21602;55.670;37.578;2022-12-07T14:45:39;99989.13;;;-8.32;68.30
35489;BME280;21602;55.670;37.578;2022-12-07T14:48:05;99991.72;;;-8.32;68.50
35489;BME280;21602;55.670;37.578;2022-12-07T14:50:33;99987.19;;;-8.28;68.61
35489;BME280;21602;55.670;37.578;2022-12-07T14:53:10;99994.53;;;-8.22;68.35
35489;BME280;21602;55.670;37.578;2022-12-07T14:55:38;99992.72;;;-8.20;68.02
35489;BME280;21602;55.670;37.578;2022-12-07T14:58:04;99993.72;;;-8.22;68.24
35489;BME280;21602;55.670;37.578;2022-12-07T15:00:30;99990.19;;;-8.21;68.24